createdAt,value
2022-09-17T00:00:19.495Z,0.00
2022-09-17T00:01:19.593Z,0.00
2022-09-17T00:02:19.456Z,0.00
2022-09-17T00:03:19.507Z,0.00
2022-09-17T00:04:19.468Z,0.00
2022-09-17T00:05:19.432Z,0.00
2022-09-17T00:06:19.425Z,0.00
2022-09-17T00:07:19.418Z,0.00
2022-09-17T00:08:19.401Z,0.00
2022-09-17T00:09:19.400Z,0.00
2022-09-17T00:10:19.381Z,0.00
2022-09-17T00:11:19.385Z,0.00
2022-09-17T00:12:19.357Z,0.00
2022-09-17T00:13:19.365Z,0.00
2022-09-17T00:14:19.345Z,0.00
2022-09-17T00:15:19.351Z,0.00
2022-09-17T00:16:19.337Z,0.00
2022-09-17T00:17:19.322Z,0.00
2022-09-17T00:18:19.327Z,0.00
2022-09-17T00:19:19.305Z,0.00
2022-09-17T00:20:19.290Z,0.00
2022-09-17T00:21:19.261Z,0.00
2022-09-17T00:22:19.266Z,0.00
2022-09-17T00:23:19.258Z,0.00
2022-09-17T00:24:19.231Z,0.00
2022-09-17T00:25:19.297Z,0.00
2022-09-17T00:26:19.214Z,0.00
2022-09-17T00:27:19.218Z,0.00
2022-09-17T00:28:19.207Z,0.00
2022-09-17T00:29:19.214Z,0.00
2022-09-17T00:30:19.181Z,0.00
2022-09-17T00:31:19.253Z,0.00
2022-09-17T00:32:19.159Z,0.00
2022-09-17T00:33:19.172Z,0.00
2022-09-17T00:34:19.172Z,0.00
2022-09-17T00:35:19.142Z,0.00
2022-09-17T00:36:19.123Z,0.00
2022-09-17T00:37:19.112Z,0.00
2022-09-17T00:38:19.087Z,0.00
2022-09-17T00:39:19.079Z,0.00
2022-09-17T00:40:19.122Z,0.00
2022-09-17T00:41:19.060Z,0.00
2022-09-17T00:42:19.055Z,0.00
2022-09-17T00:43:19.043Z,0.00
2022-09-17T00:44:19.045Z,0.00
2022-09-17T00:45:19.079Z,0.00
2022-09-17T00:46:19.040Z,0.00
2022-09-17T00:47:19.000Z,0.00
2022-09-17T00:48:19.044Z,0.00
2022-09-17T00:49:18.983Z,0.00
2022-09-17T00:50:18.972Z,0.00
2022-09-17T00:51:18.972Z,0.00
2022-09-17T00:52:18.931Z,0.00
2022-09-17T00:53:18.940Z,0.00
2022-09-17T00:54:18.924Z,0.00
2022-09-17T00:55:18.920Z,0.00
2022-09-17T00:56:18.892Z,0.00
2022-09-17T00:57:18.908Z,0.00
2022-09-17T00:58:18.876Z,0.00
2022-09-17T00:59:18.888Z,0.00
2022-09-17T01:00:18.864Z,0.00
2022-09-17T01:01:18.918Z,0.00
2022-09-17T01:02:18.932Z,0.00
2022-09-17T01:03:18.830Z,0.00
2022-09-17T01:04:18.865Z,0.00
2022-09-17T01:05:18.838Z,0.00
2022-09-17T01:06:18.801Z,0.00
2022-09-17T01:07:18.793Z,0.00
2022-09-17T01:08:18.793Z,0.00
2022-09-17T01:09:18.792Z,0.00
2022-09-17T01:10:18.757Z,0.00
2022-09-17T01:11:18.764Z,0.00
2022-09-17T01:12:18.740Z,0.00
2022-09-17T01:13:18.762Z,0.00
2022-09-17T01:14:18.722Z,0.00
2022-09-17T01:15:18.710Z,0.00
2022-09-17T01:16:18.751Z,0.00
2022-09-17T01:17:18.685Z,0.00
2022-09-17T01:18:18.699Z,0.00
2022-09-17T01:19:18.686Z,0.00
2022-09-17T01:20:18.662Z,0.00
2022-09-17T01:21:18.631Z,0.00
2022-09-17T01:22:18.650Z,0.00
2022-09-17T01:23:18.615Z,0.00
2022-09-17T01:24:18.611Z,0.00
2022-09-17T01:25:18.601Z,0.00
2022-09-17T01:26:18.598Z,0.00
2022-09-17T01:27:18.566Z,0.00
2022-09-17T01:28:18.571Z,0.00
2022-09-17T01:29:18.574Z,0.00
2022-09-17T01:30:18.586Z,0.00
2022-09-17T01:31:18.654Z,0.00
2022-09-17T01:32:18.539Z,0.00
2022-09-17T01:33:18.529Z,0.00
2022-09-17T01:34:18.551Z,0.00
2022-09-17T01:35:18.503Z,0.00
2022-09-17T01:36:18.493Z,0.00
2022-09-17T01:37:18.482Z,0.00
2022-09-17T01:38:18.467Z,0.00
2022-09-17T01:39:18.451Z,0.00
2022-09-17T01:40:18.570Z,0.00
2022-09-17T01:41:18.487Z,0.00
2022-09-17T01:42:18.428Z,0.00
2022-09-17T01:43:18.417Z,0.00
2022-09-17T01:44:18.411Z,0.00
2022-09-17T01:45:18.406Z,0.00
2022-09-17T01:46:18.422Z,0.00
2022-09-17T01:47:21.010Z,0.00
2022-09-17T01:48:18.396Z,0.00
2022-09-17T01:49:18.335Z,0.00
2022-09-17T01:50:18.346Z,0.00
2022-09-17T01:51:18.331Z,0.00
2022-09-17T01:52:18.324Z,0.00
2022-09-17T01:53:18.302Z,0.00
2022-09-17T01:54:18.298Z,0.00
2022-09-17T01:55:18.302Z,0.00
2022-09-17T01:56:18.287Z,0.00
2022-09-17T01:57:18.306Z,0.00
2022-09-17T01:58:18.259Z,0.00
2022-09-17T01:59:18.236Z,0.00
2022-09-17T02:00:18.235Z,0.00
2022-09-17T02:01:18.330Z,0.00
2022-09-17T02:02:18.261Z,0.00
2022-09-17T02:03:18.211Z,0.00
2022-09-17T02:04:18.195Z,0.00
2022-09-17T02:05:18.177Z,0.00
2022-09-17T02:06:18.167Z,0.00
2022-09-17T02:07:18.152Z,0.00
2022-09-17T02:08:18.155Z,0.00
2022-09-17T02:09:18.141Z,0.00
2022-09-17T02:10:18.171Z,0.00
2022-09-17T02:11:18.137Z,0.00
2022-09-17T02:12:18.111Z,0.00
2022-09-17T02:13:18.088Z,0.00
2022-09-17T02:14:18.099Z,0.00
2022-09-17T02:15:18.064Z,0.00
2022-09-17T02:16:18.112Z,0.00
2022-09-17T02:17:18.064Z,0.00
2022-09-17T02:18:18.048Z,0.00
2022-09-17T02:19:18.038Z,0.00
2022-09-17T02:20:22.263Z,0.00
2022-09-17T02:21:18.015Z,0.00
2022-09-17T02:22:18.011Z,0.00
2022-09-17T02:23:18.008Z,0.00
2022-09-17T02:24:17.978Z,0.00
2022-09-17T02:25:17.969Z,0.00
2022-09-17T02:26:17.966Z,0.00
2022-09-17T02:27:17.962Z,0.00
2022-09-17T02:28:17.938Z,0.00
2022-09-17T02:29:17.922Z,0.00
2022-09-17T02:30:17.939Z,0.00
2022-09-17T02:31:17.964Z,0.00
2022-09-17T02:32:17.932Z,0.00
2022-09-17T02:33:17.886Z,0.00
2022-09-17T02:34:17.887Z,0.00
2022-09-17T02:35:17.858Z,0.00
2022-09-17T02:36:17.873Z,0.00
2022-09-17T02:37:17.834Z,0.00
2022-09-17T02:38:17.848Z,0.00
2022-09-17T02:39:17.822Z,0.00
2022-09-17T02:40:17.908Z,0.00
2022-09-17T02:41:17.818Z,0.00
2022-09-17T02:42:17.787Z,0.00
2022-09-17T02:43:17.775Z,0.00
2022-09-17T02:44:17.781Z,0.00
2022-09-17T02:45:17.754Z,0.00
2022-09-17T02:46:17.796Z,0.00
2022-09-17T02:47:17.739Z,0.00
2022-09-17T02:48:17.723Z,0.00
2022-09-17T02:49:17.723Z,0.00
2022-09-17T02:50:17.714Z,0.00
2022-09-17T02:51:17.704Z,0.00
2022-09-17T02:52:17.683Z,0.00
2022-09-17T02:53:17.690Z,0.00
2022-09-17T02:54:17.698Z,0.00
2022-09-17T02:55:17.646Z,0.00
2022-09-17T02:56:17.658Z,0.00
2022-09-17T02:57:17.619Z,0.00
2022-09-17T02:58:17.654Z,0.00
2022-09-17T02:59:17.610Z,0.00
2022-09-17T03:00:17.626Z,0.00
2022-09-17T03:01:17.623Z,0.00
2022-09-17T03:02:17.678Z,0.00
2022-09-17T03:03:17.570Z,0.00
2022-09-17T03:04:17.582Z,0.00
2022-09-17T03:05:17.568Z,0.00
2022-09-17T03:06:17.543Z,0.00
2022-09-17T03:07:17.511Z,0.00
2022-09-17T03:08:17.518Z,0.00
2022-09-17T03:09:17.510Z,0.00
2022-09-17T03:10:17.507Z,0.00
2022-09-17T03:11:17.475Z,0.00
2022-09-17T03:12:17.471Z,0.00
2022-09-17T03:13:17.467Z,0.00
2022-09-17T03:14:17.467Z,0.00
2022-09-17T03:15:17.434Z,0.00
2022-09-17T03:16:17.500Z,0.00
2022-09-17T03:17:17.407Z,0.00
2022-09-17T03:18:17.415Z,0.00
2022-09-17T03:19:17.412Z,0.00
2022-09-17T03:20:17.407Z,0.00
2022-09-17T03:21:17.379Z,0.00
2022-09-17T03:22:17.364Z,0.00
2022-09-17T03:23:17.387Z,0.00
2022-09-17T03:24:17.350Z,0.00
2022-09-17T03:25:17.320Z,0.00
2022-09-17T03:26:17.329Z,0.00
2022-09-17T03:27:17.335Z,0.00
2022-09-17T03:28:17.308Z,0.00
2022-09-17T03:29:17.308Z,0.00
2022-09-17T03:30:17.275Z,0.00
2022-09-17T03:31:17.329Z,0.00
2022-09-17T03:32:17.264Z,0.00
2022-09-17T03:33:17.247Z,0.00
2022-09-17T03:34:17.260Z,0.00
2022-09-17T03:35:17.233Z,0.00
2022-09-17T03:36:17.219Z,0.00
2022-09-17T03:37:17.225Z,0.00
2022-09-17T03:38:17.217Z,0.00
2022-09-17T03:39:17.229Z,0.00
2022-09-17T03:40:17.341Z,0.00
2022-09-17T03:41:17.153Z,0.00
2022-09-17T03:42:17.205Z,0.00
2022-09-17T03:43:17.133Z,0.00
2022-09-17T03:44:17.149Z,0.00
2022-09-17T03:45:17.149Z,0.00
2022-09-17T03:46:17.217Z,0.00
2022-09-17T03:47:17.104Z,0.00
2022-09-17T03:48:17.103Z,0.00
2022-09-17T03:49:17.077Z,0.00
2022-09-17T03:50:17.081Z,0.00
2022-09-17T03:51:17.054Z,0.00
2022-09-17T03:52:17.057Z,0.00
2022-09-17T03:53:17.026Z,0.00
2022-09-17T03:54:17.050Z,0.00
2022-09-17T03:55:17.042Z,0.00
2022-09-17T03:56:17.049Z,0.00
2022-09-17T03:57:16.994Z,0.00
2022-09-17T03:58:17.038Z,0.00
2022-09-17T03:59:16.998Z,0.00
2022-09-17T04:00:16.987Z,0.00
2022-09-17T04:01:17.033Z,0.00
2022-09-17T04:02:17.090Z,0.00
2022-09-17T04:03:16.930Z,0.00
2022-09-17T04:04:16.926Z,0.00
2022-09-17T04:05:16.926Z,0.00
2022-09-17T04:06:16.902Z,0.00
2022-09-17T04:07:16.921Z,0.00
2022-09-17T04:08:16.899Z,0.00
2022-09-17T04:09:16.867Z,0.00
2022-09-17T04:10:16.870Z,0.00
2022-09-17T04:11:16.847Z,0.00
2022-09-17T04:12:16.876Z,0.00
2022-09-17T04:13:16.880Z,0.00
2022-09-17T04:14:16.823Z,0.00
2022-09-17T04:15:16.839Z,0.00
2022-09-17T04:16:16.904Z,0.00
2022-09-17T04:17:16.782Z,0.00
2022-09-17T04:18:16.779Z,0.00
2022-09-17T04:19:16.771Z,0.00
2022-09-17T04:20:16.773Z,0.00
2022-09-17T04:21:16.744Z,0.00
2022-09-17T04:22:16.751Z,0.00
2022-09-17T04:23:16.720Z,0.00
2022-09-17T04:24:16.720Z,0.00
2022-09-17T04:25:16.687Z,0.00
2022-09-17T04:26:16.700Z,0.00
2022-09-17T04:27:16.679Z,0.00
2022-09-17T04:28:16.675Z,0.00
2022-09-17T04:29:16.667Z,0.00
2022-09-17T04:30:16.654Z,0.00
2022-09-17T04:31:16.744Z,0.00
2022-09-17T04:32:16.669Z,0.00
2022-09-17T04:33:16.612Z,0.00
2022-09-17T04:34:16.556Z,1.00
2022-09-17T04:35:16.597Z,0.00
2022-09-17T04:36:16.584Z,0.00
2022-09-17T04:37:16.568Z,1.00
2022-09-17T04:38:16.517Z,1.00
2022-09-17T04:39:16.544Z,0.00
2022-09-17T04:40:16.573Z,0.00
2022-09-17T04:41:16.476Z,1.00
2022-09-17T04:42:16.536Z,0.00
2022-09-17T04:43:16.457Z,2.00
2022-09-17T04:44:16.448Z,1.00
2022-09-17T04:45:16.453Z,4.00
2022-09-17T04:46:16.465Z,2.00
2022-09-17T04:47:16.434Z,2.00
2022-09-17T04:48:16.393Z,3.00
2022-09-17T04:49:16.448Z,3.00
2022-09-17T04:50:16.383Z,5.00
2022-09-17T04:51:16.361Z,8.00
2022-09-17T04:52:16.376Z,6.00
2022-09-17T04:53:16.346Z,11.00
2022-09-17T04:54:16.349Z,9.00
2022-09-17T04:55:16.320Z,7.00
2022-09-17T04:56:16.333Z,9.00
2022-09-17T04:57:16.309Z,12.00
2022-09-17T04:58:16.349Z,15.00
2022-09-17T04:59:16.265Z,17.00
2022-09-17T05:00:16.277Z,23.00
2022-09-17T05:01:16.385Z,35.00
2022-09-17T05:02:16.307Z,37.00
2022-09-17T05:03:16.246Z,42.00
2022-09-17T05:04:16.234Z,43.00
2022-09-17T05:05:16.213Z,46.00
2022-09-17T05:06:16.210Z,51.00
2022-09-17T05:07:16.190Z,52.00
2022-09-17T05:08:16.209Z,47.00
2022-09-17T05:09:16.195Z,45.00
2022-09-17T05:10:16.197Z,41.00
2022-09-17T05:11:16.150Z,44.00
2022-09-17T05:12:16.138Z,55.00
2022-09-17T05:13:16.138Z,56.00
2022-09-17T05:14:16.138Z,54.00
2022-09-17T05:15:16.102Z,53.00
2022-09-17T05:16:16.172Z,79.00
2022-09-17T05:17:16.112Z,91.00
2022-09-17T05:18:16.082Z,107.00
2022-09-17T05:19:16.070Z,132.00
2022-09-17T05:20:16.066Z,176.00
2022-09-17T05:21:16.066Z,176.00
2022-09-17T05:22:20.771Z,196.00
2022-09-17T05:23:16.019Z,204.00
2022-09-17T05:24:16.030Z,229.00
2022-09-17T05:25:16.015Z,236.00
2022-09-17T05:26:16.003Z,271.00
2022-09-17T05:27:15.980Z,282.00
2022-09-17T05:28:15.970Z,292.00
2022-09-17T05:29:15.951Z,327.00
2022-09-17T05:30:15.971Z,319.00
2022-09-17T05:31:15.982Z,328.00
2022-09-17T05:32:15.920Z,345.00
2022-09-17T05:33:15.924Z,378.00
2022-09-17T05:34:15.916Z,408.00
2022-09-17T05:35:15.908Z,442.00
2022-09-17T05:36:15.880Z,463.00
2022-09-17T05:37:15.904Z,491.00
2022-09-17T05:38:15.902Z,502.00
2022-09-17T05:39:15.861Z,518.00
2022-09-17T05:40:15.873Z,545.00
2022-09-17T05:41:15.835Z,599.00
2022-09-17T05:42:15.829Z,642.00
2022-09-17T05:43:15.831Z,624.00
2022-09-17T05:44:18.091Z,606.00
2022-09-17T05:45:15.816Z,653.00
2022-09-17T05:46:15.840Z,599.00
2022-09-17T05:47:15.768Z,647.00
2022-09-17T05:48:15.760Z,597.00
2022-09-17T05:49:15.762Z,613.00
2022-09-17T05:50:15.760Z,602.00
2022-09-17T05:51:15.748Z,614.00
2022-09-17T05:52:15.716Z,656.00
2022-09-17T05:53:15.710Z,662.00
2022-09-17T05:54:15.693Z,677.00
2022-09-17T05:55:15.708Z,649.00
2022-09-17T05:56:15.681Z,645.00
2022-09-17T05:57:15.685Z,661.00
2022-09-17T05:58:15.677Z,672.00
2022-09-17T05:59:15.647Z,662.00
2022-09-17T06:00:15.645Z,685.00
2022-09-17T06:01:15.654Z,686.00
2022-09-17T06:02:15.687Z,715.00
2022-09-17T06:03:15.704Z,720.00
2022-09-17T06:04:15.585Z,747.00
2022-09-17T06:05:15.580Z,774.00
2022-09-17T06:06:15.578Z,791.00
2022-09-17T06:07:15.579Z,766.00
2022-09-17T06:08:15.569Z,823.00
2022-09-17T06:09:15.559Z,782.00
2022-09-17T06:10:15.522Z,792.00
2022-09-17T06:11:15.540Z,807.00
2022-09-17T06:12:15.498Z,832.00
2022-09-17T06:13:15.501Z,847.00
2022-09-17T06:14:15.477Z,852.00
2022-09-17T06:15:15.479Z,858.00
2022-09-17T06:16:15.534Z,879.00
2022-09-17T06:17:17.993Z,905.00
2022-09-17T06:18:15.445Z,951.00
2022-09-17T06:19:15.466Z,1117.00
2022-09-17T06:20:15.418Z,1101.00
2022-09-17T06:21:15.413Z,1219.00
2022-09-17T06:22:15.398Z,1426.00
2022-09-17T06:23:16.153Z,1410.00
2022-09-17T06:24:15.369Z,1421.00
2022-09-17T06:25:15.370Z,1463.00
2022-09-17T06:26:15.381Z,1439.00
2022-09-17T06:27:15.346Z,1460.00
2022-09-17T06:28:15.350Z,1555.00
2022-09-17T06:29:15.337Z,1679.00
2022-09-17T06:30:15.349Z,1678.00
2022-09-17T06:31:15.388Z,1593.00
2022-09-17T06:32:15.295Z,1506.00
2022-09-17T06:33:15.304Z,1565.00
2022-09-17T06:34:15.263Z,1456.00
2022-09-17T06:35:15.274Z,1461.00
2022-09-17T06:36:15.263Z,1489.00
2022-09-17T06:37:15.250Z,1517.00
2022-09-17T06:38:15.230Z,1447.00
2022-09-17T06:39:15.231Z,1605.00
2022-09-17T06:40:15.247Z,1842.00
2022-09-17T06:41:15.218Z,1429.00
2022-09-17T06:42:15.199Z,1816.00
2022-09-17T06:43:15.186Z,1736.00
2022-09-17T06:44:15.172Z,1735.00
2022-09-17T06:45:16.908Z,1774.00
2022-09-17T06:46:15.207Z,1723.00
2022-09-17T06:47:15.163Z,1546.00
2022-09-17T06:48:15.127Z,1572.00
2022-09-17T06:49:15.127Z,1659.00
2022-09-17T06:50:15.105Z,1766.00
2022-09-17T06:51:15.103Z,1667.00
2022-09-17T06:52:15.094Z,2071.00
2022-09-17T06:53:15.083Z,1890.00
2022-09-17T06:54:15.095Z,1900.00
2022-09-17T06:55:15.055Z,1877.00
2022-09-17T06:56:15.044Z,1841.00
2022-09-17T06:57:15.047Z,1817.00
2022-09-17T06:58:15.033Z,1727.00
2022-09-17T06:59:15.027Z,1692.00
2022-09-17T07:00:15.016Z,1833.00
2022-09-17T07:01:15.214Z,1907.00
2022-09-17T07:02:15.074Z,1887.00
2022-09-17T07:03:14.992Z,1790.00
2022-09-17T07:04:14.963Z,1838.00
2022-09-17T07:05:14.944Z,1837.00
2022-09-17T07:06:14.929Z,1704.00
2022-09-17T07:07:14.959Z,1702.00
2022-09-17T07:08:14.921Z,1845.00
2022-09-17T07:09:14.911Z,1443.00
2022-09-17T07:10:14.917Z,1546.00
2022-09-17T07:11:14.895Z,1387.00
2022-09-17T07:12:14.886Z,1710.00
2022-09-17T07:13:14.866Z,1584.00
2022-09-17T07:14:14.849Z,2373.00
2022-09-17T07:15:14.849Z,2958.00
2022-09-17T07:16:14.866Z,2904.00
2022-09-17T07:17:14.869Z,2751.00
2022-09-17T07:18:14.792Z,3095.00
2022-09-17T07:19:15.156Z,3689.00
2022-09-17T07:20:14.792Z,3003.00
2022-09-17T07:21:14.808Z,2903.00
2022-09-17T07:22:14.775Z,2677.00
2022-09-17T07:23:14.779Z,2299.00
2022-09-17T07:24:14.751Z,2011.00
2022-09-17T07:25:14.740Z,1777.00
2022-09-17T07:26:14.728Z,1600.00
2022-09-17T07:27:14.718Z,1536.00
2022-09-17T07:28:14.705Z,1545.00
2022-09-17T07:29:14.690Z,1177.00
2022-09-17T07:30:14.694Z,1755.00
2022-09-17T07:31:16.599Z,1961.00
2022-09-17T07:32:14.694Z,1842.00
2022-09-17T07:33:14.681Z,1793.00
2022-09-17T07:34:14.629Z,1822.00
2022-09-17T07:35:14.642Z,1815.00
2022-09-17T07:36:14.617Z,1804.00
2022-09-17T07:37:14.638Z,1802.00
2022-09-17T07:38:14.602Z,1823.00
2022-09-17T07:39:14.599Z,1807.00
2022-09-17T07:40:14.647Z,1857.00
2022-09-17T07:41:14.585Z,1860.00
2022-09-17T07:42:14.554Z,1974.00
2022-09-17T07:43:14.583Z,1894.00
2022-09-17T07:44:14.554Z,1863.00
2022-09-17T07:45:14.534Z,1860.00
2022-09-17T07:46:14.578Z,1866.00
2022-09-17T07:47:14.522Z,1834.00
2022-09-17T07:48:14.486Z,1816.00
2022-09-17T07:49:14.495Z,2372.00
2022-09-17T07:50:14.470Z,1756.00
2022-09-17T07:51:14.463Z,1007.00
2022-09-17T07:52:14.446Z,6185.00
2022-09-17T07:53:14.462Z,4859.00
2022-09-17T07:54:14.434Z,2205.00
2022-09-17T07:55:14.434Z,1785.00
2022-09-17T07:56:14.406Z,1789.00
2022-09-17T07:57:14.395Z,4682.00
2022-09-17T07:58:14.382Z,6846.00
2022-09-17T07:59:14.390Z,3405.00
2022-09-17T08:00:14.359Z,2375.00
2022-09-17T08:01:14.366Z,1187.00
2022-09-17T08:02:14.472Z,9283.00
2022-09-17T08:03:14.424Z,3079.00
2022-09-17T08:04:14.335Z,1252.00
2022-09-17T08:05:14.331Z,8554.00
2022-09-17T08:06:14.303Z,2279.00
2022-09-17T08:07:14.295Z,19914.00
2022-09-17T08:08:18.915Z,20021.00
2022-09-17T08:09:14.287Z,18753.00
2022-09-17T08:10:14.264Z,2038.00
2022-09-17T08:11:14.284Z,11475.00
2022-09-17T08:12:14.241Z,5412.00
2022-09-17T08:13:14.230Z,2210.00
2022-09-17T08:14:14.208Z,1976.00
2022-09-17T08:15:14.228Z,2174.00
2022-09-17T08:16:14.262Z,1806.00
2022-09-17T08:17:14.202Z,1017.00
2022-09-17T08:18:14.174Z,1935.00
2022-09-17T08:19:14.173Z,9884.00
2022-09-17T08:20:14.175Z,10928.00
2022-09-17T08:21:14.163Z,1192.00
2022-09-17T08:22:14.147Z,3093.00
2022-09-17T08:23:14.143Z,21410.00
2022-09-17T08:24:14.111Z,24626.00
2022-09-17T08:25:14.118Z,12060.00
2022-09-17T08:26:14.089Z,11831.00
2022-09-17T08:27:14.106Z,28333.00
2022-09-17T08:28:14.071Z,20892.00
2022-09-17T08:29:14.062Z,24264.00
2022-09-17T08:30:14.071Z,15961.00
2022-09-17T08:31:14.083Z,28266.00
2022-09-17T08:32:14.027Z,24597.00
2022-09-17T08:33:14.027Z,1536.00
2022-09-17T08:34:14.011Z,6368.00
2022-09-17T08:35:14.041Z,4762.00
2022-09-17T08:36:13.985Z,24455.00
2022-09-17T08:37:13.976Z,5368.00
2022-09-17T08:38:13.956Z,26668.00
2022-09-17T08:39:13.961Z,3144.00
2022-09-17T08:40:14.017Z,36009.00
2022-09-17T08:41:13.953Z,30514.00
2022-09-17T08:42:13.910Z,4864.00
2022-09-17T08:43:13.953Z,24878.00
2022-09-17T08:44:13.898Z,8764.00
2022-09-17T08:45:13.921Z,1635.00
2022-09-17T08:46:13.924Z,15715.00
2022-09-17T08:47:13.881Z,10257.00
2022-09-17T08:48:13.867Z,6832.00
2022-09-17T08:49:13.881Z,2274.00
2022-09-17T08:50:13.834Z,2025.00
2022-09-17T08:51:13.859Z,2744.00
2022-09-17T08:52:13.835Z,2858.00
2022-09-17T08:53:13.822Z,2454.00
2022-09-17T08:54:13.793Z,3140.00
2022-09-17T08:55:13.801Z,2391.00
2022-09-17T08:56:13.773Z,1998.00
2022-09-17T08:57:13.790Z,3044.00
2022-09-17T08:58:13.766Z,2877.00
2022-09-17T08:59:15.013Z,2589.00
2022-09-17T09:00:13.731Z,1990.00
2022-09-17T09:01:13.718Z,2163.00
2022-09-17T09:02:13.757Z,2247.00
2022-09-17T09:03:13.740Z,2087.00
2022-09-17T09:04:13.683Z,2025.00
2022-09-17T09:05:13.681Z,2883.00
2022-09-17T09:06:13.665Z,610.00
2022-09-17T09:07:13.669Z,2297.00
2022-09-17T09:08:13.642Z,2330.00
2022-09-17T09:09:13.646Z,1812.00
2022-09-17T09:10:13.629Z,1907.00
2022-09-17T09:11:13.621Z,2562.00
2022-09-17T09:12:13.641Z,2188.00
2022-09-17T09:13:13.609Z,2564.00
2022-09-17T09:14:13.581Z,3456.00
2022-09-17T09:15:13.581Z,1285.00
2022-09-17T09:16:13.690Z,3401.00
2022-09-17T09:17:13.561Z,2710.00
2022-09-17T09:18:13.547Z,713.00
2022-09-17T09:19:13.655Z,2051.00
2022-09-17T09:20:13.509Z,1797.00
2022-09-17T09:21:13.516Z,1760.00
2022-09-17T09:22:13.497Z,1912.00
2022-09-17T09:23:13.485Z,3227.00
2022-09-17T09:24:13.472Z,685.00
2022-09-17T09:25:13.495Z,1704.00
2022-09-17T09:26:13.461Z,1501.00
2022-09-17T09:27:13.441Z,2230.00
2022-09-17T09:28:13.437Z,2376.00
2022-09-17T09:29:13.425Z,4942.00
2022-09-17T09:30:13.413Z,2724.00
2022-09-17T09:31:13.455Z,2409.00
2022-09-17T09:32:16.661Z,2911.00
2022-09-17T09:33:13.377Z,2367.00
2022-09-17T09:34:13.377Z,1171.00
2022-09-17T09:35:13.350Z,3448.00
2022-09-17T09:36:13.357Z,3984.00
2022-09-17T09:37:13.340Z,3162.00
2022-09-17T09:38:13.334Z,2781.00
2022-09-17T09:39:13.347Z,2162.00
2022-09-17T09:40:13.375Z,1936.00
2022-09-17T09:41:13.290Z,2500.00
2022-09-17T09:42:13.299Z,3027.00
2022-09-17T09:43:13.306Z,2332.00
2022-09-17T09:44:13.623Z,1071.00
2022-09-17T09:45:13.231Z,3108.00
2022-09-17T09:46:13.283Z,5085.00
2022-09-17T09:47:13.221Z,3131.00
2022-09-17T09:48:13.245Z,1135.00
2022-09-17T09:49:13.235Z,3241.00
2022-09-17T09:50:13.189Z,5017.00
2022-09-17T09:51:13.183Z,2070.00
2022-09-17T09:52:13.175Z,1225.00
2022-09-17T09:53:13.184Z,5079.00
2022-09-17T09:54:13.151Z,2961.00
2022-09-17T09:55:13.150Z,1005.00
2022-09-17T09:56:13.133Z,2541.00
2022-09-17T09:57:13.116Z,5190.00
2022-09-17T09:58:13.116Z,2028.00
2022-09-17T09:59:13.088Z,3481.00
2022-09-17T10:00:13.093Z,3885.00
2022-09-17T10:01:13.064Z,2282.00
2022-09-17T10:02:13.250Z,941.00
2022-09-17T10:03:13.052Z,4085.00
2022-09-17T10:04:13.041Z,1101.00
2022-09-17T10:05:13.032Z,4670.00
2022-09-17T10:06:13.036Z,2291.00
2022-09-17T10:07:13.052Z,1987.00
2022-09-17T10:08:13.002Z,5778.00
2022-09-17T10:09:13.006Z,1552.00
2022-09-17T10:10:12.998Z,7194.00
2022-09-17T10:11:12.958Z,4113.00
2022-09-17T10:12:13.021Z,4709.00
2022-09-17T10:13:12.950Z,2887.00
2022-09-17T10:14:12.930Z,1839.00
2022-09-17T10:15:12.918Z,2500.00
2022-09-17T10:16:12.988Z,978.00
2022-09-17T10:17:12.891Z,4431.00
2022-09-17T10:18:12.903Z,2835.00
2022-09-17T10:19:12.879Z,1992.00
2022-09-17T10:20:12.889Z,1676.00
2022-09-17T10:21:12.879Z,1473.00
2022-09-17T10:22:12.869Z,1003.00
2022-09-17T10:23:12.873Z,1060.00
2022-09-17T10:24:12.846Z,1210.00
2022-09-17T10:25:12.846Z,1155.00
2022-09-17T10:26:12.830Z,1175.00
2022-09-17T10:27:12.790Z,1742.00
2022-09-17T10:28:12.814Z,1803.00
2022-09-17T10:29:12.783Z,2331.00
2022-09-17T10:30:12.782Z,2941.00
2022-09-17T10:31:12.802Z,2627.00
2022-09-17T10:32:13.050Z,3344.00
2022-09-17T10:33:12.738Z,3291.00
2022-09-17T10:34:12.729Z,2924.00
2022-09-17T10:35:12.710Z,2269.00
2022-09-17T10:36:12.713Z,1888.00
2022-09-17T10:37:12.697Z,1823.00
2022-09-17T10:38:12.732Z,1725.00
2022-09-17T10:39:12.680Z,1274.00
2022-09-17T10:40:12.702Z,955.00
2022-09-17T10:41:12.657Z,1420.00
2022-09-17T10:42:12.661Z,2523.00
2022-09-17T10:43:12.671Z,629.00
2022-09-17T10:44:12.674Z,3091.00
2022-09-17T10:45:12.606Z,1737.00
2022-09-17T10:46:12.637Z,623.00
2022-09-17T10:47:12.644Z,885.00
2022-09-17T10:48:12.623Z,1814.00
2022-09-17T10:49:12.578Z,1736.00
2022-09-17T10:50:12.559Z,1789.00
2022-09-17T10:51:12.544Z,1794.00
2022-09-17T10:52:12.528Z,1735.00
2022-09-17T10:53:12.514Z,2510.00
2022-09-17T10:54:12.560Z,1036.00
2022-09-17T10:55:12.496Z,2024.00
2022-09-17T10:56:12.507Z,1600.00
2022-09-17T10:57:12.493Z,1852.00
2022-09-17T10:58:12.487Z,3043.00
2022-09-17T10:59:12.478Z,998.00
2022-09-17T11:00:12.453Z,1908.00
2022-09-17T11:01:12.491Z,1923.00
2022-09-17T11:02:12.655Z,1706.00
2022-09-17T11:03:12.431Z,1873.00
2022-09-17T11:04:12.432Z,1746.00
2022-09-17T11:05:12.384Z,1610.00
2022-09-17T11:06:14.602Z,1623.00
2022-09-17T11:07:12.361Z,4422.00
2022-09-17T11:08:12.385Z,2311.00
2022-09-17T11:09:12.363Z,1538.00
2022-09-17T11:10:12.351Z,3256.00
2022-09-17T11:11:12.341Z,7408.00
2022-09-17T11:12:12.348Z,1792.00
2022-09-17T11:13:12.323Z,4843.00
2022-09-17T11:14:12.312Z,2032.00
2022-09-17T11:15:12.294Z,4876.00
2022-09-17T11:16:12.317Z,2181.00
2022-09-17T11:17:12.256Z,2286.00
2022-09-17T11:18:12.255Z,1893.00
2022-09-17T11:19:12.244Z,1369.00
2022-09-17T11:20:12.238Z,978.00
2022-09-17T11:21:12.208Z,774.00
2022-09-17T11:22:12.219Z,549.00
2022-09-17T11:23:12.228Z,1181.00
2022-09-17T11:24:12.200Z,803.00
2022-09-17T11:25:12.190Z,770.00
2022-09-17T11:26:12.175Z,647.00
2022-09-17T11:27:12.165Z,504.00
2022-09-17T11:28:12.160Z,1557.00
2022-09-17T11:29:12.144Z,826.00
2022-09-17T11:30:12.149Z,1964.00
2022-09-17T11:31:12.134Z,2329.00
2022-09-17T11:32:12.158Z,2363.00
2022-09-17T11:33:12.131Z,2248.00
2022-09-17T11:34:12.106Z,2411.00
2022-09-17T11:35:12.083Z,2211.00
2022-09-17T11:36:12.065Z,2072.00
2022-09-17T11:37:12.056Z,1730.00
2022-09-17T11:38:12.050Z,2100.00
2022-09-17T11:39:12.063Z,2649.00
2022-09-17T11:40:12.105Z,1107.00
2022-09-17T11:41:12.002Z,1828.00
2022-09-17T11:42:12.012Z,1787.00
2022-09-17T11:43:11.975Z,4012.00
2022-09-17T11:44:12.447Z,809.00
2022-09-17T11:45:11.963Z,3559.00
2022-09-17T11:46:12.023Z,1859.00
2022-09-17T11:47:11.979Z,2313.00
2022-09-17T11:48:11.952Z,610.00
2022-09-17T11:49:11.919Z,2762.00
2022-09-17T11:50:11.930Z,727.00
2022-09-17T11:51:11.896Z,2136.00
2022-09-17T11:52:11.935Z,1790.00
2022-09-17T11:53:11.881Z,1811.00
2022-09-17T11:54:11.868Z,1731.00
2022-09-17T11:55:11.856Z,1918.00
2022-09-17T11:56:11.857Z,1979.00
2022-09-17T11:57:11.832Z,2186.00
2022-09-17T11:58:11.840Z,2207.00
2022-09-17T11:59:11.824Z,2034.00
2022-09-17T12:00:11.841Z,1837.00
2022-09-17T12:01:11.786Z,1794.00
2022-09-17T12:02:11.864Z,1931.00
2022-09-17T12:03:11.842Z,1951.00
2022-09-17T12:04:11.777Z,2060.00
2022-09-17T12:05:11.745Z,2162.00
2022-09-17T12:06:11.748Z,2139.00
2022-09-17T12:07:11.721Z,3920.00
2022-09-17T12:08:14.709Z,1135.00
2022-09-17T12:09:11.693Z,4124.00
2022-09-17T12:10:11.726Z,833.00
2022-09-17T12:11:11.675Z,2564.00
2022-09-17T12:12:26.300Z,2473.00
2022-09-17T12:13:11.665Z,2306.00
2022-09-17T12:14:11.657Z,4177.00
2022-09-17T12:15:11.649Z,955.00
2022-09-17T12:16:11.727Z,2011.00
2022-09-17T12:17:11.613Z,3293.00
2022-09-17T12:18:31.079Z,3059.00
2022-09-17T12:19:11.597Z,4029.00
2022-09-17T12:20:11.626Z,3157.00
2022-09-17T12:21:11.597Z,5405.00
2022-09-17T12:22:11.587Z,4897.00
2022-09-17T12:23:11.565Z,2981.00
2022-09-17T12:24:11.544Z,2338.00
2022-09-17T12:25:11.541Z,1488.00
2022-09-17T12:26:11.548Z,1272.00
2022-09-17T12:27:11.508Z,1832.00
2022-09-17T12:28:11.521Z,1853.00
2022-09-17T12:29:11.488Z,1245.00
2022-09-17T12:30:11.476Z,638.00
2022-09-17T12:31:11.532Z,628.00
2022-09-17T12:32:11.488Z,601.00
2022-09-17T12:33:11.444Z,527.00
2022-09-17T12:34:11.445Z,658.00
2022-09-17T12:35:11.440Z,829.00
2022-09-17T12:36:11.436Z,1142.00